Menahga, Minnesota
Current Conditions -  °F | °C
As of 4:53 PM on Thursday 27 Nov 2014 (Local Time) from KPKD Reporting Station
Few Clouds Few Clouds  
Wind Chill: -6°   Ceiling: Unl
Heat Index:   Visibility: 10mi
Dew Point: -5°   Wind: 8mph
Humidity: 58%   Direction: 160°SSE
Pressure: 30.26"   Gusts: NA
Location:  46.75°N, 95.1°W
Report Text: KPKD 272253Z AUTO 16007KT 10SM FEW120 M14/M21 A3026 RMK AO2 SLP294 T11391206
Loading
Personal Weather Stations






























Interactive Weather Map New forecast layout! Learn more

10-Day Weather Forecast

Advertisements
Track Severe Weather on mobile